Time;durP1;ratioP1;P1;durP2;ratioP2;P2;SDS_P1;SDS_P2;PMS_P1;PMS_P2;Temp;Humidity;BMP_temperature;BMP_pressure;BME280_temperature;BME280_humidity;BME280_pressure;Samples;Min_cycle;Max_cycle;Signal;HPM_P1;HPM_P2
2021/03/16 00:02:04;;;;;;;0.80;0.77;;;5.70;99.90;;;;;;5084323;28;20204;-81
2021/03/16 00:04:30;;;;;;;0.50;0.40;;;5.70;99.90;;;;;;5082877;28;20221;-80
2021/03/16 00:06:57;;;;;;;0.50;0.40;;;5.70;99.90;;;;;;5083141;28;20194;-82
2021/03/16 00:09:23;;;;;;;0.50;0.40;;;5.70;99.90;;;;;;5084502;28;20193;-79
2021/03/16 00:11:49;;;;;;;1.17;1.10;;;5.70;99.90;;;;;;5083420;28;20253;-81
2021/03/16 00:14:17;;;;;;;0.50;0.40;;;5.70;99.90;;;;;;5072955;28;20234;-82
2021/03/16 00:16:43;;;;;;;0.50;0.40;;;5.70;99.90;;;;;;5063499;28;20328;-80
2021/03/16 00:19:10;;;;;;;1.75;1.67;;;5.70;99.90;;;;;;5064170;28;20256;-81
2021/03/16 00:21:36;;;;;;;0.50;0.40;;;5.80;99.90;;;;;;5064137;28;20201;-80
2021/03/16 00:24:02;;;;;;;0.50;0.40;;;5.80;99.90;;;;;;5064065;28;20214;-79
2021/03/16 00:26:29;;;;;;;0.50;0.40;;;5.80;99.90;;;;;;5062500;28;20247;-82
2021/03/16 00:28:55;;;;;;;0.50;0.40;;;5.80;99.90;;;;;;5064217;28;20190;-79
2021/03/16 00:31:22;;;;;;;0.50;0.40;;;5.70;99.90;;;;;;5063399;28;20226;-82
2021/03/16 00:33:49;;;;;;;0.75;0.75;;;5.70;99.90;;;;;;5063689;28;20219;-81
2021/03/16 00:36:15;;;;;;;0.50;0.40;;;5.70;99.90;;;;;;5063324;28;20209;-80
2021/03/16 00:38:41;;;;;;;0.50;0.40;;;5.70;99.90;;;;;;5063922;28;20245;-81
2021/03/16 00:41:08;;;;;;;0.50;0.40;;;5.70;99.90;;;;;;5061590;28;20198;-82
2021/03/16 00:43:34;;;;;;;0.50;0.40;;;5.70;99.90;;;;;;5062059;28;20224;-79
2021/03/16 00:46:00;;;;;;;0.50;0.40;;;5.70;99.90;;;;;;5075335;22;20218;-78
2021/03/16 00:48:28;;;;;;;0.50;0.43;;;5.70;99.90;;;;;;5070101;28;20193;-79
2021/03/16 00:50:54;;;;;;;0.50;0.40;;;5.70;99.90;;;;;;5074379;28;20209;-78
2021/03/16 00:53:20;;;;;;;0.50;0.40;;;5.70;99.90;;;;;;5074862;28;20653;-80
2021/03/16 00:55:46;;;;;;;0.68;0.68;;;5.70;99.90;;;;;;5076959;28;20335;-81
2021/03/16 00:58:13;;;;;;;0.50;0.40;;;5.70;99.90;;;;;;5077823;28;20214;-82
2021/03/16 01:00:39;;;;;;;0.50;0.40;;;5.70;99.90;;;;;;5078323;28;20201;-80
2021/03/16 01:03:05;;;;;;;0.50;0.40;;;5.70;99.90;;;;;;5077095;28;20193;-81
2021/03/16 01:05:34;;;;;;;0.50;0.50;;;5.70;99.90;;;;;;5078883;28;20710;-80
2021/03/16 01:08:00;;;;;;;0.50;0.40;;;5.70;99.90;;;;;;5077046;28;20197;-80
2021/03/16 01:10:29;;;;;;;2.05;1.67;;;5.70;99.90;;;;;;5078360;28;20687;-81
2021/03/16 01:12:56;;;;;;;0.50;0.40;;;5.70;99.90;;;;;;5078661;28;20198;-80
2021/03/16 01:15:22;;;;;;;0.50;0.40;;;5.70;99.90;;;;;;5077640;28;20229;-80
2021/03/16 01:17:48;;;;;;;0.50;0.40;;;5.70;99.90;;;;;;5077251;28;20206;-81
2021/03/16 01:20:17;;;;;;;1.08;0.60;;;5.70;99.90;;;;;;5078285;28;20197;-80
2021/03/16 01:22:45;;;;;;;0.50;0.40;;;5.70;99.90;;;;;;5077625;28;20194;-80
2021/03/16 01:25:11;;;;;;;0.65;0.60;;;5.60;99.90;;;;;;5078159;28;20194;-80
2021/03/16 01:27:38;;;;;;;0.50;0.50;;;5.60;99.90;;;;;;5077016;28;20201;-80
2021/03/16 01:30:06;;;;;;;1.30;1.20;;;5.50;99.90;;;;;;5077860;28;20185;-78
2021/03/16 01:32:33;;;;;;;0.50;0.40;;;5.50;99.90;;;;;;5077903;28;20239;-80
2021/03/16 01:34:59;;;;;;;0.50;0.40;;;5.50;99.90;;;;;;5077704;28;20198;-78
2021/03/16 01:37:25;;;;;;;0.50;0.40;;;5.50;99.90;;;;;;5077618;28;20210;-80
2021/03/16 01:39:52;;;;;;;0.50;0.40;;;5.30;99.90;;;;;;5077475;28;20262;-82
2021/03/16 01:42:18;;;;;;;0.50;0.40;;;5.40;99.90;;;;;;5077955;28;20201;-80
2021/03/16 01:44:45;;;;;;;0.50;0.50;;;5.40;99.90;;;;;;5078052;28;20197;-81
2021/03/16 01:47:14;;;;;;;0.50;0.40;;;5.30;99.90;;;;;;5076777;28;20706;-80
2021/03/16 01:49:41;;;;;;;0.50;0.40;;;5.30;99.90;;;;;;5077890;28;20224;-80
2021/03/16 01:52:08;;;;;;;0.50;0.40;;;5.30;99.90;;;;;;5077412;28;20193;-77
2021/03/16 01:54:34;;;;;;;0.50;0.50;;;5.30;99.90;;;;;;5077239;28;20200;-78
2021/03/16 01:57:03;;;;;;;0.50;0.40;;;5.30;99.90;;;;;;5077052;28;20213;-76
2021/03/16 01:59:30;;;;;;;0.50;0.40;;;5.30;99.90;;;;;;5077459;28;20208;-81
2021/03/16 02:01:56;;;;;;;0.50;0.40;;;5.30;99.90;;;;;;5077459;28;20202;-81
2021/03/16 02:04:23;;;;;;;0.50;0.40;;;5.30;99.90;;;;;;5075827;28;20205;-80
2021/03/16 02:06:57;;;;;;;0.52;0.52;;;5.20;99.90;;;;;;5075612;28;20218;-81
2021/03/16 02:09:31;;;;;;;0.50;0.40;;;5.30;99.90;;;;;;5077500;28;20189;-80
2021/03/16 02:12:02;;;;;;;0.50;0.40;;;5.40;99.90;;;;;;5077521;28;20184;-81
2021/03/16 02:14:32;;;;;;;0.50;0.40;;;5.30;99.90;;;;;;5077694;28;20250;-80
2021/03/16 02:17:05;;;;;;;0.50;0.40;;;5.40;99.90;;;;;;5076384;28;20225;-79
2021/03/16 02:19:57;;;;;;;0.50;0.40;;;5.40;99.90;;;;;;5069715;28;20186;-80
2021/03/16 02:22:26;;;;;;;0.50;0.40;;;5.40;99.90;;;;;;5077648;28;20236;-80
2021/03/16 02:25:06;;;;;;;0.50;0.40;;;5.40;99.90;;;;;;5077306;28;20209;-80
2021/03/16 02:27:48;;;;;;;0.50;0.40;;;5.50;99.90;;;;;;5076915;28;20178;-81
2021/03/16 02:30:17;;;;;;;0.50;0.40;;;5.50;99.90;;;;;;5077142;28;20667;-80
2021/03/16 02:32:46;;;;;;;0.50;0.40;;;5.50;99.90;;;;;;5083724;28;20205;-80
2021/03/16 02:35:15;;;;;;;0.50;0.40;;;5.60;99.90;;;;;;5076748;28;20672;-80
2021/03/16 02:37:42;;;;;;;0.50;0.40;;;5.60;99.90;;;;;;5076288;28;20217;-81
2021/03/16 02:40:10;;;;;;;0.50;0.40;;;5.70;99.90;;;;;;5076421;28;20201;-80
2021/03/16 02:42:39;;;;;;;0.50;0.40;;;5.70;99.90;;;;;;5076492;28;20191;-79
2021/03/16 02:45:10;;;;;;;0.50;0.40;;;5.70;99.90;;;;;;5076422;28;20236;-80
2021/03/16 02:47:40;;;;;;;0.50;0.40;;;5.70;99.90;;;;;;5075557;28;20262;-82
2021/03/16 02:50:08;;;;;;;0.50;0.40;;;5.60;99.90;;;;;;5075579;28;20194;-77
2021/03/16 02:52:36;;;;;;;0.50;0.40;;;5.60;99.90;;;;;;5076598;28;20198;-80
2021/03/16 02:55:04;;;;;;;0.50;0.40;;;5.60;99.90;;;;;;5077260;28;20201;-80
2021/03/16 02:57:32;;;;;;;0.50;0.40;;;5.70;99.90;;;;;;5075617;28;20217;-80
2021/03/16 03:00:00;;;;;;;0.50;0.40;;;5.70;99.90;;;;;;5076524;28;20707;-80
2021/03/16 03:02:28;;;;;;;0.50;0.40;;;5.70;99.90;;;;;;5073884;28;20733;-77
2021/03/16 03:04:55;;;;;;;5.85;0.82;;;5.70;99.90;;;;;;5076468;28;20209;-81
2021/03/16 03:07:24;;;;;;;0.50;0.40;;;5.60;99.90;;;;;;5075489;28;20210;-79
2021/03/16 03:09:51;;;;;;;0.50;0.40;;;5.60;99.90;;;;;;5075980;28;20204;-80
2021/03/16 03:12:17;;;;;;;0.50;0.40;;;5.70;99.90;;;;;;5076393;28;20197;-80
2021/03/16 03:14:43;;;;;;;0.50;0.40;;;5.60;99.90;;;;;;5076551;28;20190;-80
2021/03/16 03:17:10;;;;;;;0.50;0.40;;;5.70;99.90;;;;;;5074068;28;20217;-80
2021/03/16 03:19:36;;;;;;;0.50;0.40;;;5.60;99.90;;;;;;5076316;28;20691;-81
2021/03/16 03:22:10;;;;;;;0.50;0.40;;;5.60;99.90;;;;;;5076244;28;20251;-81
2021/03/16 03:24:41;;;;;;;0.50;0.40;;;5.60;99.90;;;;;;5075705;28;20246;-81
2021/03/16 03:27:10;;;;;;;0.50;0.40;;;5.70;99.90;;;;;;5075523;28;20209;-80
2021/03/16 03:29:38;;;;;;;0.50;0.40;;;5.70;99.90;;;;;;5075535;28;20201;-82
2021/03/16 03:32:05;;;;;;;0.50;0.40;;;5.70;99.90;;;;;;5075231;28;20208;-81
2021/03/16 03:34:33;;;;;;;0.50;0.40;;;5.70;99.90;;;;;;5075841;28;20186;-81
2021/03/16 03:37:02;;;;;;;0.50;0.40;;;5.70;99.90;;;;;;5074648;28;20218;-81
2021/03/16 03:39:33;;;;;;;0.50;0.40;;;5.70;99.90;;;;;;5075806;28;20201;-79
2021/03/16 03:41:59;;;;;;;0.50;0.40;;;5.60;99.90;;;;;;5075675;28;20178;-81
2021/03/16 03:44:29;;;;;;;0.50;0.40;;;5.60;99.90;;;;;;5075248;28;20190;-80
2021/03/16 03:46:56;;;;;;;0.50;0.40;;;5.60;99.90;;;;;;5074076;28;20225;-80
2021/03/16 03:49:23;;;;;;;0.50;0.40;;;5.70;99.90;;;;;;5075206;28;20277;-81
2021/03/16 03:51:50;;;;;;;0.50;0.40;;;5.70;99.90;;;;;;5075764;28;20220;-80
2021/03/16 03:54:18;;;;;;;0.50;0.40;;;5.70;99.90;;;;;;5074917;28;20209;-81
2021/03/16 03:56:46;;;;;;;0.50;0.40;;;5.70;99.90;;;;;;5074190;28;20212;-81
2021/03/16 03:59:15;;;;;;;0.50;0.40;;;5.70;99.90;;;;;;5075008;28;20244;-81
2021/03/16 04:01:41;;;;;;;0.50;0.40;;;5.70;99.90;;;;;;5075135;28;20659;-81
2021/03/16 04:04:08;;;;;;;0.50;0.40;;;5.70;99.90;;;;;;5073836;28;20569;-80
2021/03/16 04:06:36;;;;;;;0.50;0.40;;;5.70;99.90;;;;;;5074328;28;20235;-80
2021/03/16 04:09:03;;;;;;;0.50;0.40;;;5.60;99.90;;;;;;5074826;28;20207;-81
2021/03/16 04:11:30;;;;;;;0.60;0.60;;;5.60;99.90;;;;;;5075373;28;20718;-81
2021/03/16 04:13:59;;;;;;;0.50;0.40;;;5.70;99.90;;;;;;5075518;28;20209;-80
2021/03/16 04:16:26;;;;;;;0.50;0.40;;;5.70;99.90;;;;;;5073256;28;20296;-79
2021/03/16 04:18:53;;;;;;;0.50;0.40;;;5.70;99.90;;;;;;5073895;28;20212;-80
2021/03/16 04:21:20;;;;;;;0.50;0.40;;;5.70;99.90;;;;;;5073423;28;20198;-80
2021/03/16 04:23:46;;;;;;;0.50;0.40;;;5.70;99.90;;;;;;5073654;28;20198;-80
2021/03/16 04:26:12;;;;;;;0.50;0.40;;;5.70;99.90;;;;;;5073323;28;20271;-80
2021/03/16 04:28:38;;;;;;;0.50;0.40;;;5.70;99.90;;;;;;5075345;28;20219;-81
2021/03/16 04:31:06;;;;;;;0.50;0.40;;;5.70;99.90;;;;;;5077160;28;20220;-80
2021/03/16 04:33:32;;;;;;;0.50;0.40;;;5.70;99.90;;;;;;5078166;28;20198;-80
2021/03/16 04:35:58;;;;;;;0.50;0.40;;;5.70;99.90;;;;;;5077614;28;20304;-80
2021/03/16 04:38:25;;;;;;;0.50;0.40;;;5.70;99.90;;;;;;5079047;28;20213;-79
2021/03/16 04:40:51;;;;;;;0.50;0.40;;;5.70;99.90;;;;;;5078520;28;20671;-81
2021/03/16 04:43:17;;;;;;;0.50;0.40;;;5.70;99.90;;;;;;5078957;28;20548;-81
2021/03/16 04:45:43;;;;;;;0.50;0.40;;;5.80;99.90;;;;;;5077978;28;20611;-80
2021/03/16 04:48:11;;;;;;;1.35;1.13;;;5.80;99.90;;;;;;5077879;28;20326;-81
2021/03/16 04:50:37;;;;;;;0.50;0.40;;;5.80;99.90;;;;;;5078589;28;20290;-80
2021/03/16 04:53:03;;;;;;;0.50;0.40;;;5.80;99.90;;;;;;5078850;28;20215;-80
2021/03/16 04:55:30;;;;;;;0.50;0.40;;;5.80;99.90;;;;;;5070421;28;20284;-81
2021/03/16 04:57:58;;;;;;;0.50;0.40;;;5.80;99.90;;;;;;5077606;28;20218;-81
2021/03/16 05:00:24;;;;;;;0.50;0.40;;;5.80;99.90;;;;;;5078259;28;20198;-81
2021/03/16 05:02:51;;;;;;;0.50;0.40;;;5.80;99.90;;;;;;5076253;28;20201;-80
2021/03/16 05:05:18;;;;;;;0.50;0.40;;;5.80;99.90;;;;;;5078583;28;20198;-81
2021/03/16 05:07:45;;;;;;;0.55;0.55;;;5.80;99.90;;;;;;5078087;28;20198;-81
2021/03/16 05:10:12;;;;;;;0.50;0.40;;;5.80;99.90;;;;;;5078344;28;20194;-81
2021/03/16 05:12:38;;;;;;;0.50;0.40;;;5.80;99.90;;;;;;5077766;28;20194;-81
2021/03/16 05:15:06;;;;;;;0.50;0.40;;;5.80;99.90;;;;;;5078197;28;20871;-81
2021/03/16 05:17:32;;;;;;;0.50;0.40;;;5.80;99.90;;;;;;5076286;28;20209;-80
2021/03/16 05:19:59;;;;;;;0.60;0.60;;;5.80;99.90;;;;;;5077300;28;20205;-80
2021/03/16 05:22:26;;;;;;;0.50;0.40;;;5.80;99.90;;;;;;5077220;28;20198;-80
2021/03/16 05:24:52;;;;;;;0.50;0.40;;;5.80;99.90;;;;;;5077225;28;20594;-81
2021/03/16 05:27:18;;;;;;;0.50;0.40;;;5.70;99.90;;;;;;5075632;28;20221;-79
2021/03/16 05:29:45;;;;;;;0.50;0.40;;;5.70;99.90;;;;;;5077354;28;20663;-81
2021/03/16 05:32:11;;;;;;;0.50;0.40;;;5.70;99.90;;;;;;5077246;28;20281;-80
2021/03/16 05:34:37;;;;;;;0.50;0.40;;;5.60;99.90;;;;;;5076629;28;20296;-79
2021/03/16 05:37:07;;;;;;;0.50;0.40;;;5.50;99.90;;;;;;5075926;28;20227;-79
2021/03/16 05:39:34;;;;;;;0.50;0.40;;;5.50;99.90;;;;;;5077564;28;20202;-79
2021/03/16 05:42:01;;;;;;;0.50;0.40;;;5.50;99.90;;;;;;5077306;28;20198;-79
2021/03/16 05:44:27;;;;;;;0.63;0.63;;;5.50;99.90;;;;;;5077725;28;20202;-79
2021/03/16 05:46:54;;;;;;;0.55;0.50;;;5.50;99.90;;;;;;5076156;28;20229;-79
2021/03/16 05:49:23;;;;;;;0.77;0.70;;;5.50;99.90;;;;;;5077426;28;20541;-79
2021/03/16 05:51:50;;;;;;;0.50;0.50;;;5.50;99.90;;;;;;5077035;28;20205;-79
2021/03/16 05:54:17;;;;;;;0.50;0.40;;;5.50;99.90;;;;;;5075975;28;20206;-79
2021/03/16 05:56:44;;;;;;;0.50;0.40;;;5.50;99.90;;;;;;5075882;28;20305;-79
2021/03/16 05:59:11;;;;;;;0.50;0.40;;;5.50;99.90;;;;;;5077073;28;20209;-80
2021/03/16 06:01:37;;;;;;;0.50;0.40;;;5.60;99.90;;;;;;5076748;28;20193;-80
2021/03/16 06:04:04;;;;;;;0.50;0.40;;;5.60;99.90;;;;;;5075513;28;20213;-79
2021/03/16 06:06:31;;;;;;;0.50;0.40;;;5.60;99.90;;;;;;5075987;28;20213;-79
2021/03/16 06:08:57;;;;;;;0.50;0.40;;;5.60;99.90;;;;;;5076578;28;20559;-79
2021/03/16 06:11:24;;;;;;;1.98;0.85;;;5.70;99.90;;;;;;5077147;28;20201;-79
2021/03/16 06:13:53;;;;;;;0.50;0.40;;;5.70;99.90;;;;;;5076150;28;20264;-79
2021/03/16 06:16:20;;;;;;;0.50;0.40;;;5.60;99.90;;;;;;5074779;28;21265;-79
2021/03/16 06:18:47;;;;;;;0.50;0.40;;;5.60;99.90;;;;;;5076156;28;20202;-80
2021/03/16 06:21:18;;;;;;;0.50;0.40;;;5.60;99.90;;;;;;5076913;28;20194;-79
2021/03/16 06:23:52;;;;;;;0.50;0.40;;;5.50;99.90;;;;;;5076104;28;20178;-79
2021/03/16 06:26:19;;;;;;;0.50;0.40;;;5.50;99.90;;;;;;5075801;28;20270;-79
2021/03/16 06:28:46;;;;;;;1.08;0.77;;;5.50;99.90;;;;;;5075864;28;20194;-79
2021/03/16 06:31:22;;;;;;;0.50;0.40;;;5.60;99.90;;;;;;5075392;28;20204;-79
2021/03/16 06:33:48;;;;;;;0.50;0.40;;;5.60;99.90;;;;;;5062999;28;20571;-79
2021/03/16 06:36:15;;;;;;;0.60;0.50;;;5.70;99.90;;;;;;5066598;28;20229;-76
2021/03/16 06:38:41;;;;;;;1.40;1.30;;;5.60;99.90;;;;;;5074812;28;20252;-79
2021/03/16 06:41:10;;;;;;;0.50;0.40;;;5.70;99.90;;;;;;5076018;28;20359;-81
2021/03/16 06:43:36;;;;;;;2.13;1.98;;;5.90;99.90;;;;;;5074971;28;20254;-80
2021/03/16 06:46:03;;;;;;;0.50;0.40;;;6.10;99.90;;;;;;5075222;28;20695;-77
2021/03/16 06:48:36;;;;;;;0.50;0.40;;;6.50;99.90;;;;;;5075626;28;20194;-79
2021/03/16 06:51:10;;;;;;;0.50;0.40;;;6.80;99.90;;;;;;5075261;28;20221;-79
2021/03/16 06:53:37;;;;;;;0.50;0.40;;;7.00;99.90;;;;;;5074681;28;20194;-79
2021/03/16 06:56:03;;;;;;;2.45;2.25;;;7.10;99.90;;;;;;5074636;28;20214;-79
2021/03/16 06:58:32;;;;;;;0.50;0.40;;;7.10;99.90;;;;;;5065134;28;20752;-79
2021/03/16 07:01:06;;;;;;;0.50;0.40;;;7.10;99.90;;;;;;5070266;28;20190;-79
2021/03/16 07:03:33;;;;;;;0.50;0.40;;;7.10;99.90;;;;;;5066463;28;20213;-79
2021/03/16 07:06:13;;;;;;;3.50;1.45;;;7.10;99.90;;;;;;5075928;28;20221;-79
2021/03/16 07:08:40;;;;;;;0.50;0.40;;;7.10;99.90;;;;;;5075501;28;20213;-79
2021/03/16 07:11:09;;;;;;;0.80;0.80;;;7.00;99.90;;;;;;5074590;28;20447;-79
2021/03/16 07:13:35;;;;;;;0.50;0.40;;;7.00;99.90;;;;;;5073943;28;20186;-78
2021/03/16 07:16:02;;;;;;;0.50;0.40;;;7.00;99.90;;;;;;5073318;28;20222;-78
2021/03/16 07:18:32;;;;;;;0.50;0.40;;;6.90;99.90;;;;;;5074643;28;20300;-79
2021/03/16 07:21:04;;;;;;;0.50;0.40;;;6.90;99.90;;;;;;5075282;28;20232;-78
2021/03/16 07:23:32;;;;;;;0.50;0.40;;;6.90;99.90;;;;;;5074612;28;20205;-80
2021/03/16 07:25:58;;;;;;;0.50;0.40;;;6.90;99.90;;;;;;5073684;28;20214;-79
2021/03/16 07:28:25;;;;;;;0.60;0.60;;;6.80;99.90;;;;;;5073977;28;20194;-80
2021/03/16 07:30:51;;;;;;;0.50;0.40;;;6.80;99.90;;;;;;5075136;28;20198;-79
2021/03/16 07:33:18;;;;;;;1.65;1.58;;;6.90;99.90;;;;;;5075285;28;20271;-79
2021/03/16 07:35:45;;;;;;;1.77;1.67;;;7.10;99.90;;;;;;5073734;28;20214;-79
2021/03/16 07:38:13;;;;;;;1.30;1.20;;;7.30;99.90;;;;;;5073910;28;20206;-78
2021/03/16 07:40:43;;;;;;;0.63;0.63;;;7.40;99.90;;;;;;5073394;28;20201;-80
2021/03/16 07:43:10;;;;;;;0.50;0.50;;;7.50;99.90;;;;;;5073793;28;20198;-79
2021/03/16 07:45:37;;;;;;;0.50;0.40;;;7.60;99.90;;;;;;5073866;28;20279;-78
2021/03/16 07:48:14;;;;;;;0.50;0.40;;;7.80;99.90;;;;;;5072943;28;20183;-78
2021/03/16 07:50:41;;;;;;;0.60;0.60;;;8.10;99.90;;;;;;5061781;28;20560;-79
2021/03/16 07:53:07;;;;;;;0.70;0.60;;;8.20;99.90;;;;;;5053615;28;20206;-78
2021/03/16 07:55:34;;;;;;;0.50;0.40;;;8.20;99.90;;;;;;5053668;28;20580;-79
2021/03/16 07:58:08;;;;;;;0.60;0.50;;;8.40;99.90;;;;;;5072551;22;20940;-80
2021/03/16 08:00:35;;;;;;;0.50;0.40;;;8.90;99.90;;;;;;5075480;28;20194;-81
2021/03/16 08:03:03;;;;;;;0.50;0.40;;;9.10;99.90;;;;;;5083581;28;20555;-80
2021/03/16 08:05:39;;;;;;;0.88;0.88;;;9.40;99.90;;;;;;5085521;28;20191;-81
2021/03/16 08:08:16;;;;;;;0.50;0.40;;;9.50;99.90;;;;;;5085546;28;20216;-81
2021/03/16 08:10:44;;;;;;;0.50;0.40;;;9.60;99.90;;;;;;5085119;28;20197;-81
2021/03/16 08:13:17;;;;;;;0.50;0.40;;;9.60;99.90;;;;;;5086532;28;20196;-81
2021/03/16 08:15:44;;;;;;;0.50;0.40;;;9.40;99.90;;;;;;5086109;28;20184;-81
2021/03/16 08:18:12;;;;;;;0.50;0.40;;;9.20;99.90;;;;;;5085702;28;20220;-82
2021/03/16 08:20:42;;;;;;;0.50;0.40;;;9.10;99.90;;;;;;5086177;28;20249;-81
2021/03/16 08:23:10;;;;;;;0.63;0.63;;;9.00;99.90;;;;;;5084686;28;20201;-82
2021/03/16 08:25:38;;;;;;;0.50;0.40;;;9.00;99.90;;;;;;5085041;28;20218;-81
2021/03/16 08:28:08;;;;;;;0.50;0.40;;;9.00;99.90;;;;;;5083780;28;20929;-81
2021/03/16 08:30:36;;;;;;;0.50;0.40;;;9.00;99.90;;;;;;5085404;28;20237;-81
2021/03/16 08:33:10;;;;;;;0.50;0.40;;;9.20;99.90;;;;;;5086411;28;20205;-81
2021/03/16 08:35:40;;;;;;;0.50;0.40;;;9.70;99.90;;;;;;5084977;28;20205;-80
2021/03/16 08:38:07;;;;;;;0.50;0.40;;;9.90;99.90;;;;;;5085425;28;20239;-81
2021/03/16 08:40:33;;;;;;;0.50;0.40;;;10.40;99.90;;;;;;5085956;28;20197;-81
2021/03/16 08:43:00;;;;;;;0.50;0.40;;;10.60;99.90;;;;;;5085583;28;20204;-81
2021/03/16 08:45:30;;;;;;;7.90;1.60;;;10.90;99.90;;;;;;5085120;28;20205;-81
2021/03/16 08:47:57;;;;;;;0.50;0.40;;;10.70;99.90;;;;;;5085077;28;20225;-81
2021/03/16 08:50:24;;;;;;;0.50;0.40;;;10.70;99.90;;;;;;5086107;28;20199;-81
2021/03/16 08:52:51;;;;;;;0.50;0.40;;;11.10;99.90;;;;;;5085978;28;20221;-81
2021/03/16 08:55:25;;;;;;;0.50;0.40;;;11.20;99.90;;;;;;5084961;28;20197;-81
2021/03/16 08:57:52;;;;;;;0.50;0.40;;;11.30;99.90;;;;;;5084497;28;20235;-82
2021/03/16 09:00:23;;;;;;;0.50;0.40;;;10.90;99.90;;;;;;5084711;28;20196;-81
2021/03/16 09:02:50;;;;;;;0.50;0.40;;;11.00;99.90;;;;;;5083277;28;20185;-81
2021/03/16 09:05:21;;;;;;;0.50;0.35;;;11.20;99.90;;;;;;5085026;28;20230;-81
2021/03/16 09:07:47;;;;;;;0.50;0.40;;;11.40;99.90;;;;;;5086135;28;20199;-81
2021/03/16 09:10:17;;;;;;;5.30;1.25;;;12.00;99.90;;;;;;5084596;28;20202;-81
2021/03/16 09:12:45;;;;;;;0.50;0.40;;;12.60;99.90;;;;;;5084162;28;20200;-81
2021/03/16 09:15:14;;;;;;;2.75;0.40;;;12.90;99.90;;;;;;5085551;28;20194;-80
2021/03/16 09:17:41;;;;;;;0.50;0.40;;;12.60;99.90;;;;;;5088339;28;20244;-81
2021/03/16 09:20:11;;;;;;;0.73;0.73;;;12.40;99.90;;;;;;5090234;28;20295;-81
2021/03/16 09:22:38;;;;;;;0.50;0.40;;;12.20;99.90;;;;;;5088851;28;20200;-80
2021/03/16 09:25:07;;;;;;;0.50;0.40;;;11.90;99.90;;;;;;5082884;28;20190;-80
2021/03/16 09:27:34;;;;;;;0.50;0.40;;;11.60;99.90;;;;;;5079860;28;20248;-79
2021/03/16 09:30:01;;;;;;;0.50;0.40;;;11.30;99.90;;;;;;5082134;28;20192;-80
2021/03/16 09:32:27;;;;;;;0.50;0.40;;;11.20;99.90;;;;;;5082535;28;20264;-79
2021/03/16 09:34:54;;;;;;;0.50;0.40;;;11.00;99.90;;;;;;5083127;28;20722;-79
2021/03/16 09:37:22;;;;;;;5.97;1.30;;;11.00;99.90;;;;;;5081057;28;20196;-81
2021/03/16 09:39:57;;;;;;;1.25;1.25;;;10.80;99.90;;;;;;5082094;28;20269;-80
2021/03/16 09:42:35;;;;;;;0.50;0.40;;;10.50;99.90;;;;;;5082314;28;20204;-80
2021/03/16 09:45:04;;;;;;;0.50;0.40;;;10.50;99.90;;;;;;5083538;28;20209;-80
2021/03/16 09:47:32;;;;;;;0.50;0.40;;;10.90;99.90;;;;;;5083950;28;20219;-81
2021/03/16 09:50:07;;;;;;;0.50;0.40;;;11.40;99.90;;;;;;5083957;28;20214;-81
2021/03/16 09:52:34;;;;;;;0.93;0.93;;;11.20;99.90;;;;;;5084768;28;20261;-80
2021/03/16 09:55:01;;;;;;;2.45;2.35;;;11.30;99.90;;;;;;5083577;28;20222;-80
2021/03/16 09:57:32;;;;;;;0.50;0.40;;;11.30;99.90;;;;;;5083513;28;20227;-80
2021/03/16 10:00:02;;;;;;;0.50;0.40;;;11.70;99.90;;;;;;5085616;28;20204;-79
2021/03/16 10:02:32;;;;;;;0.63;0.63;;;12.00;99.90;;;;;;5062803;28;20195;-78
2021/03/16 10:05:06;;;;;;;0.50;0.50;;;12.60;99.90;;;;;;5069520;28;20208;-80
2021/03/16 10:07:34;;;;;;;0.50;0.40;;;12.70;99.90;;;;;;5066905;28;20214;-79
2021/03/16 10:10:10;;;;;;;0.50;0.40;;;12.30;99.90;;;;;;5067588;28;20220;-80
2021/03/16 10:12:37;;;;;;;0.60;0.50;;;11.90;99.90;;;;;;5066807;28;20285;-80
2021/03/16 10:15:05;;;;;;;0.50;0.40;;;11.80;99.90;;;;;;5066252;28;20211;-80
2021/03/16 10:17:32;;;;;;;0.50;0.40;;;11.70;99.90;;;;;;5065691;28;20243;-80
2021/03/16 10:20:00;;;;;;;0.50;0.40;;;11.50;99.90;;;;;;5066041;28;20198;-81
2021/03/16 10:22:27;;;;;;;0.50;0.40;;;11.50;99.90;;;;;;5065656;28;20198;-80
2021/03/16 10:24:57;;;;;;;0.50;0.40;;;11.40;99.90;;;;;;5065910;28;20200;-81
2021/03/16 10:27:28;;;;;;;0.50;0.40;;;11.10;99.90;;;;;;5065957;28;20216;-80
2021/03/16 10:29:56;;;;;;;0.50;0.40;;;10.80;99.90;;;;;;5085436;28;20210;-80
2021/03/16 10:32:22;;;;;;;0.60;0.50;;;10.70;99.90;;;;;;5085771;28;20261;-80
2021/03/16 10:34:48;;;;;;;0.50;0.40;;;10.70;99.90;;;;;;5086869;28;20199;-80
2021/03/16 10:37:22;;;;;;;0.50;0.40;;;10.80;99.90;;;;;;5085472;28;20196;-81
2021/03/16 10:39:48;;;;;;;0.50;0.40;;;11.00;99.90;;;;;;5086283;28;20203;-81
2021/03/16 10:42:18;;;;;;;36.58;2.38;;;11.40;99.90;;;;;;5087284;28;20198;-78
2021/03/16 10:44:45;;;;;;;0.50;0.40;;;11.60;99.90;;;;;;5086300;28;20265;-80
2021/03/16 10:47:12;;;;;;;0.50;0.40;;;12.40;99.90;;;;;;5085430;28;20205;-80
2021/03/16 10:49:39;;;;;;;0.50;0.40;;;13.60;99.90;;;;;;5086077;28;20486;-81
2021/03/16 10:52:06;;;;;;;0.50;0.30;;;14.60;99.90;;;;;;5087333;28;20216;-82
2021/03/16 10:54:35;;;;;;;39.67;2.40;;;15.20;99.90;;;;;;5086857;28;20458;-81
2021/03/16 10:57:03;;;;;;;0.50;0.50;;;15.30;99.90;;;;;;5086227;28;20448;-81
2021/03/16 10:59:30;;;;;;;0.95;0.95;;;14.40;99.90;;;;;;5092051;28;20262;-81
2021/03/16 11:01:56;;;;;;;0.60;0.60;;;13.30;99.90;;;;;;5093067;28;20213;-81
2021/03/16 11:04:23;;;;;;;1.15;0.93;;;12.40;99.90;;;;;;5091097;28;20186;-80
2021/03/16 11:06:49;;;;;;;0.50;0.40;;;11.90;99.90;;;;;;5091362;28;20218;-80
2021/03/16 11:09:16;;;;;;;0.55;0.47;;;11.50;99.90;;;;;;5090644;28;20269;-80
2021/03/16 11:11:43;;;;;;;0.50;0.45;;;11.30;99.90;;;;;;5091699;28;20207;-81
2021/03/16 11:14:09;;;;;;;0.50;0.40;;;11.00;99.90;;;;;;5092989;28;20221;-80
2021/03/16 11:16:37;;;;;;;0.50;0.40;;;10.90;99.90;;;;;;5092276;28;20288;-81
2021/03/16 11:19:03;;;;;;;0.57;0.47;;;10.90;99.90;;;;;;5075565;28;20293;-81
2021/03/16 11:21:29;;;;;;;0.65;0.65;;;10.90;99.90;;;;;;5092842;28;20203;-81
2021/03/16 11:23:55;;;;;;;0.50;0.40;;;11.10;99.90;;;;;;5092950;28;20229;-81
2021/03/16 11:26:22;;;;;;;0.50;0.40;;;11.50;99.90;;;;;;5092543;28;20197;-78
2021/03/16 11:28:48;;;;;;;0.50;0.40;;;11.90;99.90;;;;;;5091710;28;20227;-81
2021/03/16 11:31:14;;;;;;;0.80;0.77;;;12.40;99.90;;;;;;5093066;28;20205;-79
2021/03/16 11:33:41;;;;;;;0.50;0.40;;;13.10;99.90;;;;;;5089195;28;20197;-81
2021/03/16 11:36:08;;;;;;;0.50;0.38;;;13.40;99.90;;;;;;5085466;28;20201;-81
2021/03/16 11:38:34;;;;;;;0.50;0.40;;;12.90;99.90;;;;;;5086951;28;20728;-81
2021/03/16 11:41:01;;;;;;;0.50;0.40;;;12.90;99.90;;;;;;5087054;28;20204;-81
2021/03/16 11:43:27;;;;;;;0.50;0.40;;;12.80;99.90;;;;;;5086448;28;20194;-80
2021/03/16 11:45:53;;;;;;;0.50;0.40;;;12.90;99.90;;;;;;5085453;28;20261;-81
2021/03/16 11:48:19;;;;;;;0.50;0.40;;;12.60;99.90;;;;;;5085818;28;20209;-81
2021/03/16 11:50:47;;;;;;;9.57;0.65;;;13.10;99.90;;;;;;5086686;28;20198;-81
2021/03/16 11:53:13;;;;;;;0.80;0.50;;;14.10;99.90;;;;;;5086546;28;20201;-81
2021/03/16 11:55:39;;;;;;;0.50;0.30;;;14.10;99.90;;;;;;5086255;28;20440;-82
2021/03/16 11:58:06;;;;;;;0.50;0.43;;;14.60;99.90;;;;;;5084899;28;20480;-81
2021/03/16 12:00:32;;;;;;;0.50;0.40;;;14.90;99.90;;;;;;5085884;28;20428;-81
2021/03/16 12:02:58;;;;;;;0.50;0.30;;;15.50;99.90;;;;;;5084587;28;20459;-81
2021/03/16 12:05:25;;;;;;;0.50;0.37;;;16.10;99.90;;;;;;5085489;28;20440;-81
2021/03/16 12:07:52;;;;;;;0.50;0.40;;;16.30;99.90;;;;;;5085093;28;21364;-82
2021/03/16 12:10:18;;;;;;;0.50;0.37;;;16.00;99.90;;;;;;5068772;28;20500;-81
2021/03/16 12:12:44;;;;;;;0.50;0.37;;;15.20;99.90;;;;;;5086091;28;20451;-81
2021/03/16 12:15:14;;;;;;;0.63;0.50;;;14.80;99.90;;;;;;5085502;28;20447;-81
2021/03/16 12:17:40;;;;;;;1.70;0.77;;;14.10;99.90;;;;;;5085278;28;21007;-81
2021/03/16 12:20:08;;;;;;;0.60;0.52;;;13.30;99.90;;;;;;5085967;28;20527;-81
2021/03/16 12:22:34;;;;;;;0.50;0.40;;;12.00;99.90;;;;;;5086220;28;20190;-81
2021/03/16 12:25:01;;;;;;;0.70;0.70;;;11.30;99.90;;;;;;5086022;28;20204;-81
2021/03/16 12:27:27;;;;;;;0.50;0.40;;;11.00;99.90;;;;;;5084998;28;20269;-80
2021/03/16 12:29:54;;;;;;;0.50;0.40;;;10.40;99.90;;;;;;5086573;28;20219;-81
2021/03/16 12:32:21;;;;;;;0.50;0.40;;;10.30;99.90;;;;;;5088016;28;20197;-79
2021/03/16 12:34:48;;;;;;;0.50;0.40;;;10.10;99.90;;;;;;5087481;28;20197;-80
2021/03/16 12:37:14;;;;;;;0.50;0.40;;;10.20;99.90;;;;;;5087182;28;20201;-80
2021/03/16 12:39:40;;;;;;;0.50;0.40;;;10.40;99.90;;;;;;5088219;28;20310;-80
2021/03/16 12:42:07;;;;;;;0.60;0.57;;;10.20;99.90;;;;;;5071248;28;20208;-81
2021/03/16 12:44:34;;;;;;;0.50;0.40;;;10.30;99.90;;;;;;5087879;28;20201;-81
2021/03/16 12:47:04;;;;;;;0.50;0.40;;;10.40;99.90;;;;;;5085253;28;20200;-82
2021/03/16 12:49:30;;;;;;;0.50;0.40;;;10.40;99.90;;;;;;5069245;28;20213;-81
2021/03/16 12:51:56;;;;;;;2.67;0.73;;;10.60;99.90;;;;;;5088463;28;20563;-81
2021/03/16 12:54:23;;;;;;;0.50;0.50;;;10.70;99.90;;;;;;5089935;28;20203;-81
2021/03/16 12:56:49;;;;;;;0.50;0.40;;;10.60;99.90;;;;;;5087490;28;20197;-82